Time;durP1;ratioP1;P1;durP2;ratioP2;P2;SDS_P1;SDS_P2;PMS_P1;PMS_P2;Temp;Humidity;BMP_temperature;BMP_pressure;BME280_temperature;BME280_humidity;BME280_pressure;Samples;Min_cycle;Max_cycle;Signal;HPM_P1;HPM_P2
2023/12/14 00:01:31;;;;;;;15.85;6.90;;;;;;;;;;5051113;28;20041;-62
2023/12/14 00:03:57;;;;;;;14.90;7.00;;;;;;;;;;5030262;28;20056;-62
2023/12/14 00:06:23;;;;;;;17.40;6.80;;;;;;;;;;5045098;28;20064;-62
2023/12/14 00:08:49;;;;;;;19.25;7.95;;;;;;;;;;5050343;28;20443;-62
2023/12/14 00:11:15;;;;;;;13.25;5.85;;;;;;;;;;5049722;28;20408;-62
2023/12/14 00:13:41;;;;;;;12.32;7.03;;;;;;;;;;5044781;28;20127;-62
2023/12/14 00:16:08;;;;;;;19.27;7.25;;;;;;;;;;5026076;28;20045;-62
2023/12/14 00:18:34;;;;;;;17.33;7.72;;;;;;;;;;5052145;28;20068;-62
2023/12/14 00:21:00;;;;;;;15.32;6.88;;;;;;;;;;5034735;28;20138;-62
2023/12/14 00:23:27;;;;;;;16.92;6.57;;;;;;;;;;5032429;28;20049;-62
2023/12/14 00:25:53;;;;;;;17.52;6.22;;;;;;;;;;5049128;28;20095;-62
2023/12/14 00:28:19;;;;;;;17.55;6.32;;;;;;;;;;5051097;28;20053;-62
2023/12/14 00:30:45;;;;;;;12.65;5.53;;;;;;;;;;5032910;28;20048;-62
2023/12/14 00:33:11;;;;;;;8.70;5.03;;;;;;;;;;5016267;28;20369;-62
2023/12/14 00:35:37;;;;;;;13.30;5.57;;;;;;;;;;5029767;28;20382;-62
2023/12/14 00:38:03;;;;;;;11.93;5.75;;;;;;;;;;5026564;28;20429;-62
2023/12/14 00:40:33;;;;;;;13.13;5.30;;;;;;;;;;5052248;28;20041;-62
2023/12/14 00:42:59;;;;;;;9.65;4.72;;;;;;;;;;5033508;28;20053;-62
2023/12/14 00:45:25;;;;;;;10.50;5.25;;;;;;;;;;5033828;28;20080;-62
2023/12/14 00:47:52;;;;;;;13.43;6.13;;;;;;;;;;5035069;28;20041;-62
2023/12/14 00:50:18;;;;;;;16.05;6.60;;;;;;;;;;5033737;28;20049;-62
2023/12/14 00:52:44;;;;;;;10.80;5.32;;;;;;;;;;5033459;28;20517;-62
2023/12/14 00:55:10;;;;;;;10.73;6.22;;;;;;;;;;5033156;28;20507;-62
2023/12/14 00:57:36;;;;;;;13.68;6.60;;;;;;;;;;5031479;28;20475;-62
2023/12/14 01:00:03;;;;;;;12.75;6.18;;;;;;;;;;5034930;28;20060;-62
2023/12/14 01:02:29;;;;;;;12.25;6.00;;;;;;;;;;5050194;28;20045;-62
2023/12/14 01:04:56;;;;;;;10.05;4.60;;;;;;;;;;5033436;28;20481;-62
2023/12/14 01:07:22;;;;;;;9.15;4.90;;;;;;;;;;5034731;28;20041;-62
2023/12/14 01:09:48;;;;;;;11.98;4.88;;;;;;;;;;5046919;28;20045;-62
2023/12/14 01:12:14;;;;;;;8.05;4.20;;;;;;;;;;5050980;28;20048;-62
2023/12/14 01:14:40;;;;;;;14.68;5.85;;;;;;;;;;5052873;28;20400;-62
2023/12/14 01:17:06;;;;;;;12.88;5.38;;;;;;;;;;5052617;28;20369;-62
2023/12/14 01:19:32;;;;;;;15.35;6.95;;;;;;;;;;5033227;28;20080;-62
2023/12/14 01:21:59;;;;;;;10.48;5.70;;;;;;;;;;5033980;28;20059;-62
2023/12/14 01:24:25;;;;;;;11.85;4.80;;;;;;;;;;5051781;28;20134;-62
2023/12/14 01:26:51;;;;;;;9.55;5.03;;;;;;;;;;5050154;28;20477;-62
2023/12/14 01:29:17;;;;;;;8.63;4.50;;;;;;;;;;5033275;28;20045;-62
2023/12/14 01:31:43;;;;;;;11.02;5.45;;;;;;;;;;5047962;28;20500;-62
2023/12/14 01:34:12;;;;;;;9.93;4.90;;;;;;;;;;5050485;28;20103;-62
2023/12/14 01:36:38;;;;;;;8.57;5.00;;;;;;;;;;5033664;28;20047;-62
2023/12/14 01:39:05;;;;;;;11.10;5.95;;;;;;;;;;5031492;28;20037;-62
2023/12/14 01:41:31;;;;;;;14.35;5.50;;;;;;;;;;5050396;28;20144;-63
2023/12/14 01:43:57;;;;;;;12.70;6.32;;;;;;;;;;5050644;28;20040;-62
2023/12/14 01:46:23;;;;;;;13.55;6.28;;;;;;;;;;5050754;28;20052;-62
2023/12/14 01:48:51;;;;;;;10.13;5.63;;;;;;;;;;5050731;28;20049;-62
2023/12/14 01:51:18;;;;;;;9.68;5.22;;;;;;;;;;5050989;28;20045;-63
2023/12/14 01:53:44;;;;;;;30.05;8.48;;;;;;;;;;5049286;28;20388;-62
2023/12/14 01:56:10;;;;;;;9.63;5.90;;;;;;;;;;5031603;28;20061;-62
2023/12/14 01:58:36;;;;;;;13.13;6.45;;;;;;;;;;5050926;28;20049;-62
2023/12/14 02:01:15;;;;;;;10.82;5.03;;;;;;;;;;5031055;28;20393;-62
2023/12/14 02:03:45;;;;;;;14.82;7.18;;;;;;;;;;5031454;28;20117;-62
2023/12/14 02:06:11;;;;;;;10.13;5.70;;;;;;;;;;5032782;28;20052;-62
2023/12/14 02:08:37;;;;;;;9.98;5.60;;;;;;;;;;5049177;28;20048;-62
2023/12/14 02:11:03;;;;;;;8.48;5.35;;;;;;;;;;5050355;28;20033;-62
2023/12/14 02:13:30;;;;;;;14.77;5.97;;;;;;;;;;5048073;28;20052;-62
2023/12/14 02:15:56;;;;;;;12.95;6.20;;;;;;;;;;5031501;28;20054;-62
2023/12/14 02:18:22;;;;;;;10.57;6.05;;;;;;;;;;5032763;28;20551;-63
2023/12/14 02:20:48;;;;;;;10.10;5.55;;;;;;;;;;5033672;28;20110;-62
2023/12/14 02:23:14;;;;;;;11.88;5.72;;;;;;;;;;5048335;28;20155;-62
2023/12/14 02:25:40;;;;;;;12.90;6.22;;;;;;;;;;5049523;28;20531;-62
2023/12/14 02:28:07;;;;;;;12.23;6.60;;;;;;;;;;5048390;28;20060;-62
2023/12/14 02:30:33;;;;;;;13.23;6.45;;;;;;;;;;5047119;28;20110;-62
2023/12/14 02:32:59;;;;;;;17.27;8.18;;;;;;;;;;5048764;28;20083;-62
2023/12/14 02:35:25;;;;;;;11.45;6.35;;;;;;;;;;5048670;28;20045;-62
2023/12/14 02:37:51;;;;;;;16.10;7.68;;;;;;;;;;5050006;28;20055;-62
2023/12/14 02:40:17;;;;;;;12.65;7.32;;;;;;;;;;5049339;28;20477;-62
2023/12/14 02:42:44;;;;;;;12.07;6.70;;;;;;;;;;5048695;28;20071;-62
2023/12/14 02:45:10;;;;;;;9.80;6.50;;;;;;;;;;5048506;28;20048;-62
2023/12/14 02:47:36;;;;;;;13.20;7.75;;;;;;;;;;5030888;28;20424;-62
2023/12/14 02:50:03;;;;;;;15.93;7.70;;;;;;;;;;5049842;28;20049;-62
2023/12/14 02:52:29;;;;;;;11.55;7.53;;;;;;;;;;5032496;28;20041;-62
2023/12/14 02:54:55;;;;;;;18.88;8.63;;;;;;;;;;5034420;28;20056;-62
2023/12/14 02:57:21;;;;;;;15.93;7.25;;;;;;;;;;5034764;28;20190;-62
2023/12/14 02:59:47;;;;;;;16.38;7.70;;;;;;;;;;5036794;28;20072;-62
2023/12/14 03:02:14;;;;;;;16.27;7.65;;;;;;;;;;5036993;28;20485;-62
2023/12/14 03:04:40;;;;;;;15.15;7.78;;;;;;;;;;5029882;28;20037;-62
2023/12/14 03:07:06;;;;;;;16.13;7.20;;;;;;;;;;5033049;28;20049;-62
2023/12/14 03:09:33;;;;;;;18.65;7.72;;;;;;;;;;5036004;28;20052;-62
2023/12/14 03:12:00;;;;;;;12.18;7.38;;;;;;;;;;5036357;28;20048;-62
2023/12/14 03:14:26;;;;;;;22.88;7.97;;;;;;;;;;5036648;28;20136;-62
2023/12/14 03:16:52;;;;;;;16.90;7.97;;;;;;;;;;5036065;28;20423;-62
2023/12/14 03:19:18;;;;;;;20.90;8.68;;;;;;;;;;5035750;28;20053;-62
2023/12/14 03:21:44;;;;;;;20.83;9.10;;;;;;;;;;5036307;28;20044;-62
2023/12/14 03:24:11;;;;;;;21.80;8.77;;;;;;;;;;5036406;28;20088;-62
2023/12/14 03:26:37;;;;;;;15.35;8.45;;;;;;;;;;5053205;28;20127;-62
2023/12/14 03:29:03;;;;;;;17.10;7.85;;;;;;;;;;5036374;28;20098;-62
2023/12/14 03:31:29;;;;;;;19.95;8.68;;;;;;;;;;5035826;28;20139;-62
2023/12/14 03:33:56;;;;;;;20.95;8.18;;;;;;;;;;5034291;28;20053;-62
2023/12/14 03:36:25;;;;;;;22.50;8.25;;;;;;;;;;5053163;28;20063;-62
2023/12/14 03:38:51;;;;;;;21.27;9.55;;;;;;;;;;5052408;28;20049;-62
2023/12/14 03:41:18;;;;;;;19.33;8.40;;;;;;;;;;5044700;28;20037;-62
2023/12/14 03:43:44;;;;;;;19.95;8.90;;;;;;;;;;5052771;28;20500;-62
2023/12/14 03:46:10;;;;;;;17.73;7.80;;;;;;;;;;5052500;28;20396;-62
2023/12/14 03:48:37;;;;;;;20.38;8.70;;;;;;;;;;5035609;28;20140;-62
2023/12/14 03:51:03;;;;;;;21.75;9.20;;;;;;;;;;5033982;28;20119;-62
2023/12/14 03:53:30;;;;;;;20.38;8.15;;;;;;;;;;5016561;28;20079;-62
2023/12/14 03:55:56;;;;;;;23.63;7.88;;;;;;;;;;5048325;28;20419;-62
2023/12/14 03:58:22;;;;;;;22.40;8.25;;;;;;;;;;5035121;28;20127;-62
2023/12/14 04:00:48;;;;;;;20.75;8.75;;;;;;;;;;5051855;28;20041;-62
2023/12/14 04:03:14;;;;;;;16.88;7.70;;;;;;;;;;5034071;28;20045;-62
2023/12/14 04:05:40;;;;;;;18.65;7.43;;;;;;;;;;5051781;28;20049;-62
2023/12/14 04:08:07;;;;;;;22.77;8.00;;;;;;;;;;5052209;28;20369;-62
2023/12/14 04:10:33;;;;;;;18.80;7.80;;;;;;;;;;5052176;28;20041;-62
2023/12/14 04:12:59;;;;;;;17.58;7.28;;;;;;;;;;5017389;28;20067;-62
2023/12/14 04:15:25;;;;;;;22.92;7.63;;;;;;;;;;5033303;28;20055;-62
2023/12/14 04:17:51;;;;;;;14.38;6.78;;;;;;;;;;5035072;28;20147;-62
2023/12/14 04:20:18;;;;;;;21.33;8.07;;;;;;;;;;5031283;28;20053;-62
2023/12/14 04:22:45;;;;;;;19.20;8.07;;;;;;;;;;5029453;28;20041;-62
2023/12/14 04:25:11;;;;;;;28.55;11.20;;;;;;;;;;5032593;28;20460;-62
2023/12/14 04:27:37;;;;;;;16.33;7.85;;;;;;;;;;5031384;28;20060;-62
2023/12/14 04:30:04;;;;;;;23.88;8.25;;;;;;;;;;5027844;28;20084;-62
2023/12/14 04:32:30;;;;;;;15.18;8.50;;;;;;;;;;5029363;28;20136;-62
2023/12/14 04:34:56;;;;;;;15.90;8.27;;;;;;;;;;5030725;28;20045;-62
2023/12/14 04:37:23;;;;;;;24.20;9.40;;;;;;;;;;5030995;28;20504;-62
2023/12/14 04:39:49;;;;;;;17.67;8.48;;;;;;;;;;5032661;28;20045;-62
2023/12/14 04:42:15;;;;;;;20.13;8.10;;;;;;;;;;5030387;28;20053;-62
2023/12/14 04:44:41;;;;;;;18.48;8.23;;;;;;;;;;5032743;28;20345;-62
2023/12/14 04:47:08;;;;;;;19.77;8.65;;;;;;;;;;5027793;28;20119;-62
2023/12/14 04:49:34;;;;;;;20.48;9.27;;;;;;;;;;5030527;28;20053;-62
2023/12/14 04:52:00;;;;;;;20.65;8.48;;;;;;;;;;5025104;28;20038;-62
2023/12/14 04:54:26;;;;;;;18.83;9.07;;;;;;;;;;5025690;28;20044;-62
2023/12/14 04:56:52;;;;;;;23.33;8.90;;;;;;;;;;5031081;28;20473;-62
2023/12/14 04:59:18;;;;;;;17.75;7.60;;;;;;;;;;5031777;28;20143;-62
2023/12/14 05:01:45;;;;;;;24.98;8.60;;;;;;;;;;5032365;28;20045;-62
2023/12/14 05:04:11;;;;;;;18.88;8.90;;;;;;;;;;5030067;28;20088;-62
2023/12/14 05:06:38;;;;;;;18.60;8.02;;;;;;;;;;5031731;28;20037;-62
2023/12/14 05:09:06;;;;;;;21.48;8.30;;;;;;;;;;5032791;28;20099;-62
2023/12/14 05:11:32;;;;;;;21.35;8.80;;;;;;;;;;5030851;28;20049;-62
2023/12/14 05:13:59;;;;;;;16.75;8.68;;;;;;;;;;5031115;28;20050;-62
2023/12/14 05:16:28;;;;;;;16.83;8.48;;;;;;;;;;5030451;28;20496;-62
2023/12/14 05:18:54;;;;;;;20.10;8.13;;;;;;;;;;5030161;28;20500;-62
2023/12/14 05:21:20;;;;;;;18.20;8.55;;;;;;;;;;5006691;28;20142;-62
2023/12/14 05:23:46;;;;;;;21.83;8.45;;;;;;;;;;5029702;28;20045;-62
2023/12/14 05:26:13;;;;;;;21.92;9.43;;;;;;;;;;5030613;28;20041;-62
2023/12/14 05:28:39;;;;;;;17.77;9.23;;;;;;;;;;5032177;28;20049;-62
2023/12/14 05:31:05;;;;;;;19.42;9.18;;;;;;;;;;5027866;28;20041;-62
2023/12/14 05:33:33;;;;;;;17.88;8.50;;;;;;;;;;5027520;28;20049;-62
2023/12/14 05:35:59;;;;;;;25.13;11.02;;;;;;;;;;5030591;28;20053;-62
2023/12/14 05:38:26;;;;;;;21.50;8.95;;;;;;;;;;5029797;28;20049;-62
2023/12/14 05:40:52;;;;;;;19.08;9.25;;;;;;;;;;5029869;28;20103;-62
2023/12/14 05:43:18;;;;;;;18.52;9.32;;;;;;;;;;5029204;28;20515;-62
2023/12/14 05:45:44;;;;;;;16.15;8.68;;;;;;;;;;5030143;28;20037;-62
2023/12/14 05:48:14;;;;;;;26.90;10.43;;;;;;;;;;5030814;28;20080;-62
2023/12/14 05:50:40;;;;;;;17.75;8.98;;;;;;;;;;5030172;28;20041;-62
2023/12/14 05:53:06;;;;;;;20.52;10.27;;;;;;;;;;5027787;28;20045;-62
2023/12/14 05:55:32;;;;;;;16.63;9.82;;;;;;;;;;5013199;28;20037;-63
2023/12/14 05:57:58;;;;;;;27.85;9.82;;;;;;;;;;5028699;28;20057;-63
2023/12/14 06:00:25;;;;;;;23.55;10.57;;;;;;;;;;5020673;28;20045;-63
2023/12/14 06:02:51;;;;;;;19.20;10.60;;;;;;;;;;5028082;28;20056;-63
2023/12/14 06:05:17;;;;;;;21.65;9.30;;;;;;;;;;5026071;28;20038;-63
2023/12/14 06:07:43;;;;;;;22.92;10.63;;;;;;;;;;5028362;28;20145;-60
2023/12/14 06:10:10;;;;;;;19.08;9.70;;;;;;;;;;5027011;28;20436;-61
2023/12/14 06:12:36;;;;;;;21.02;10.38;;;;;;;;;;5022125;28;20140;-61
2023/12/14 06:15:03;;;;;;;20.05;10.18;;;;;;;;;;5028908;28;20319;-62
2023/12/14 06:17:29;;;;;;;20.48;9.10;;;;;;;;;;5029343;28;20497;-62
2023/12/14 06:19:55;;;;;;;22.15;10.23;;;;;;;;;;5025990;28;20049;-62
2023/12/14 06:22:21;;;;;;;21.15;10.48;;;;;;;;;;5024869;28;20370;-62
2023/12/14 06:24:47;;;;;;;22.08;9.95;;;;;;;;;;5029071;28;20182;-62
2023/12/14 06:27:14;;;;;;;23.02;10.57;;;;;;;;;;5038956;28;20401;-62
2023/12/14 06:29:40;;;;;;;20.27;9.18;;;;;;;;;;5023413;28;20045;-62
2023/12/14 06:32:06;;;;;;;23.88;10.32;;;;;;;;;;5027918;28;20046;-62
2023/12/14 06:34:32;;;;;;;23.70;11.20;;;;;;;;;;5028630;28;20497;-62
2023/12/14 06:36:59;;;;;;;20.73;10.77;;;;;;;;;;5027628;28;20063;-62
2023/12/14 06:39:26;;;;;;;19.88;9.80;;;;;;;;;;5031890;28;20045;-62
2023/12/14 06:41:55;;;;;;;20.88;9.70;;;;;;;;;;5007287;28;20157;-62
2023/12/14 06:44:21;;;;;;;22.70;10.48;;;;;;;;;;5029904;28;20133;-64
2023/12/14 06:46:47;;;;;;;25.17;10.50;;;;;;;;;;5029992;28;20111;-64
2023/12/14 06:49:13;;;;;;;19.27;10.45;;;;;;;;;;5029127;28;20136;-64
2023/12/14 06:51:40;;;;;;;16.63;9.73;;;;;;;;;;5028764;28;20040;-64
2023/12/14 06:54:06;;;;;;;20.58;10.55;;;;;;;;;;5029588;28;20115;-64
2023/12/14 06:56:32;;;;;;;19.40;9.93;;;;;;;;;;5028805;28;20065;-64
2023/12/14 06:58:58;;;;;;;18.92;9.27;;;;;;;;;;5026517;28;20124;-64
2023/12/14 07:01:24;;;;;;;22.67;9.50;;;;;;;;;;5023514;28;20046;-64
2023/12/14 07:03:50;;;;;;;18.15;9.48;;;;;;;;;;5024207;28;20370;-64
2023/12/14 07:06:17;;;;;;;20.77;10.48;;;;;;;;;;5027278;28;20041;-64
2023/12/14 07:08:44;;;;;;;18.08;9.60;;;;;;;;;;5026712;28;20049;-64
2023/12/14 07:11:10;;;;;;;19.23;9.20;;;;;;;;;;5020795;28;20069;-64
2023/12/14 07:13:37;;;;;;;19.48;8.95;;;;;;;;;;5027751;28;20049;-64
2023/12/14 07:16:12;;;;;;;16.58;10.18;;;;;;;;;;5022174;28;20396;-64
2023/12/14 07:18:39;;;;;;;22.30;9.25;;;;;;;;;;5019304;28;20057;-64
2023/12/14 07:21:06;;;;;;;19.80;9.40;;;;;;;;;;5025435;28;20136;-64
2023/12/14 07:23:32;;;;;;;21.45;9.38;;;;;;;;;;5025528;28;20073;-64
2023/12/14 07:25:58;;;;;;;24.83;9.80;;;;;;;;;;5024456;28;20057;-64
2023/12/14 07:28:25;;;;;;;20.75;9.50;;;;;;;;;;5027145;28;20393;-64
2023/12/14 07:30:51;;;;;;;18.20;9.13;;;;;;;;;;5022734;28;20041;-64
2023/12/14 07:33:17;;;;;;;27.50;11.05;;;;;;;;;;5025188;28;20401;-64
2023/12/14 07:35:43;;;;;;;18.95;9.85;;;;;;;;;;5025747;28;20076;-64
2023/12/14 07:38:10;;;;;;;17.35;8.77;;;;;;;;;;5026305;28;20400;-64
2023/12/14 07:40:38;;;;;;;21.02;9.98;;;;;;;;;;5021326;28;20052;-64
2023/12/14 07:43:05;;;;;;;21.77;10.02;;;;;;;;;;5026039;28;20551;-64
2023/12/14 07:45:31;;;;;;;15.57;9.40;;;;;;;;;;5026725;28;20388;-64
2023/12/14 07:47:57;;;;;;;21.88;9.32;;;;;;;;;;5028243;28;20129;-64
2023/12/14 07:50:24;;;;;;;23.58;9.43;;;;;;;;;;5025941;28;20058;-64
2023/12/14 07:52:50;;;;;;;21.63;9.52;;;;;;;;;;5028222;28;20128;-64
2023/12/14 07:55:17;;;;;;;21.95;10.43;;;;;;;;;;5031198;28;20436;-64
2023/12/14 07:57:44;;;;;;;16.90;8.57;;;;;;;;;;5029993;28;20370;-64
2023/12/14 08:00:10;;;;;;;18.58;10.07;;;;;;;;;;5029008;28;21740;-64
2023/12/14 08:02:36;;;;;;;20.88;9.77;;;;;;;;;;5031317;28;20053;-64
2023/12/14 08:05:03;;;;;;;20.50;9.85;;;;;;;;;;5034356;28;20041;-64
2023/12/14 08:07:29;;;;;;;22.13;9.63;;;;;;;;;;5030882;28;20041;-65
2023/12/14 08:09:58;;;;;;;21.20;11.38;;;;;;;;;;5033431;28;20091;-65
2023/12/14 08:12:25;;;;;;;21.38;10.27;;;;;;;;;;5032094;28;20048;-64
2023/12/14 08:14:51;;;;;;;20.25;9.18;;;;;;;;;;5033167;28;20175;-64
2023/12/14 08:17:18;;;;;;;21.13;10.68;;;;;;;;;;5031785;28;20055;-65
2023/12/14 08:19:44;;;;;;;19.98;9.55;;;;;;;;;;5046206;28;20049;-65
2023/12/14 08:22:12;;;;;;;19.10;9.80;;;;;;;;;;5052439;28;20060;-65
2023/12/14 08:24:44;;;;;;;19.73;9.88;;;;;;;;;;5019148;28;20087;-64
2023/12/14 08:27:10;;;;;;;21.15;10.82;;;;;;;;;;5039672;28;20052;-64
2023/12/14 08:29:37;;;;;;;19.05;10.05;;;;;;;;;;5033517;28;20497;-64
2023/12/14 08:32:03;;;;;;;22.88;9.73;;;;;;;;;;5034172;28;20049;-64
2023/12/14 08:34:29;;;;;;;23.27;9.77;;;;;;;;;;5052794;28;20342;-64
2023/12/14 08:36:55;;;;;;;22.55;10.27;;;;;;;;;;5035898;28;20094;-64
2023/12/14 08:39:21;;;;;;;23.20;10.30;;;;;;;;;;5053652;28;20543;-64
2023/12/14 08:41:48;;;;;;;28.30;10.40;;;;;;;;;;5051060;28;20037;-64
2023/12/14 08:44:15;;;;;;;28.08;11.00;;;;;;;;;;5035069;28;20049;-64
2023/12/14 08:46:41;;;;;;;23.52;10.10;;;;;;;;;;5035737;28;20048;-64
2023/12/14 08:49:08;;;;;;;28.17;11.82;;;;;;;;;;5034516;28;20088;-65
2023/12/14 08:51:34;;;;;;;24.10;10.05;;;;;;;;;;5035594;28;20102;-65
2023/12/14 08:54:00;;;;;;;25.65;11.13;;;;;;;;;;5035448;28;20048;-64
2023/12/14 08:56:26;;;;;;;23.55;10.85;;;;;;;;;;5051554;28;20073;-64
2023/12/14 08:58:52;;;;;;;21.02;10.60;;;;;;;;;;5034151;28;20049;-65
2023/12/14 09:01:22;;;;;;;23.70;11.30;;;;;;;;;;5052078;28;20052;-64
2023/12/14 09:03:49;;;;;;;25.13;10.43;;;;;;;;;;5051434;28;20132;-64
2023/12/14 09:06:17;;;;;;;17.70;9.85;;;;;;;;;;5035144;28;20048;-64
2023/12/14 09:08:43;;;;;;;19.00;10.10;;;;;;;;;;5052826;28;20052;-64
2023/12/14 09:11:13;;;;;;;19.48;10.07;;;;;;;;;;5033884;28;20049;-64
2023/12/14 09:13:39;;;;;;;26.30;11.10;;;;;;;;;;5034216;28;20404;-64
2023/12/14 09:16:05;;;;;;;21.63;10.05;;;;;;;;;;5034064;28;20416;-64
2023/12/14 09:18:32;;;;;;;22.90;10.13;;;;;;;;;;5051931;28;20064;-66
2023/12/14 09:20:58;;;;;;;21.10;10.35;;;;;;;;;;5034651;28;20076;-64
2023/12/14 09:23:24;;;;;;;19.63;10.50;;;;;;;;;;5027904;28;20093;-64
2023/12/14 09:25:50;;;;;;;20.00;9.95;;;;;;;;;;5051041;28;20040;-65
2023/12/14 09:28:16;;;;;;;24.58;11.20;;;;;;;;;;5052338;28;20480;-64
2023/12/14 09:30:44;;;;;;;17.88;10.30;;;;;;;;;;5032328;28;20055;-64
2023/12/14 09:33:10;;;;;;;25.48;10.65;;;;;;;;;;5052512;28;20049;-64
2023/12/14 09:35:36;;;;;;;25.52;10.88;;;;;;;;;;5023396;28;20052;-64
2023/12/14 09:38:07;;;;;;;25.35;10.82;;;;;;;;;;5029273;28;20053;-64
2023/12/14 09:40:34;;;;;;;20.10;10.60;;;;;;;;;;5029634;28;20045;-64
2023/12/14 09:43:01;;;;;;;23.85;10.57;;;;;;;;;;5030186;28;20041;-65
2023/12/14 09:45:30;;;;;;;24.52;11.07;;;;;;;;;;5030566;28;20064;-64
2023/12/14 09:47:58;;;;;;;26.15;10.68;;;;;;;;;;5031054;28;20045;-64
2023/12/14 09:50:24;;;;;;;24.73;10.93;;;;;;;;;;5029210;28;20080;-64
2023/12/14 09:52:51;;;;;;;27.58;11.00;;;;;;;;;;5030157;28;20037;-64
2023/12/14 09:55:17;;;;;;;20.48;10.38;;;;;;;;;;5030497;28;20544;-64
2023/12/14 09:57:43;;;;;;;27.85;11.18;;;;;;;;;;5030070;28;20048;-64
2023/12/14 10:00:10;;;;;;;28.40;12.27;;;;;;;;;;5044890;28;20106;-64
2023/12/14 10:02:37;;;;;;;22.75;11.70;;;;;;;;;;5049118;28;20037;-65
2023/12/14 10:05:03;;;;;;;20.23;11.18;;;;;;;;;;5048679;28;20480;-64
2023/12/14 10:07:31;;;;;;;24.23;11.30;;;;;;;;;;5028357;28;20116;-64
2023/12/14 10:10:09;;;;;;;23.75;10.25;;;;;;;;;;5014535;28;20049;-64
2023/12/14 10:12:50;;;;;;;21.10;11.35;;;;;;;;;;5048613;28;20421;-64
2023/12/14 10:15:17;;;;;;;22.02;12.05;;;;;;;;;;5026833;28;20084;-64
2023/12/14 10:17:43;;;;;;;22.02;10.15;;;;;;;;;;5029202;28;20049;-64
2023/12/14 10:20:09;;;;;;;17.88;8.88;;;;;;;;;;5045360;28;20095;-64
2023/12/14 10:22:37;;;;;;;21.33;9.82;;;;;;;;;;5028252;28;20052;-64
2023/12/14 10:25:03;;;;;;;22.23;10.02;;;;;;;;;;5046733;28;20400;-64
2023/12/14 10:27:31;;;;;;;17.30;10.23;;;;;;;;;;5030115;28;20037;-64
2023/12/14 10:29:58;;;;;;;21.45;10.27;;;;;;;;;;5048044;28;20053;-64
2023/12/14 10:32:25;;;;;;;22.30;9.60;;;;;;;;;;5047788;28;20038;-64
2023/12/14 10:34:51;;;;;;;18.30;9.85;;;;;;;;;;5026855;28;20456;-64
2023/12/14 10:37:17;;;;;;;27.00;10.25;;;;;;;;;;5031334;28;20567;-64
2023/12/14 10:39:44;;;;;;;20.63;10.32;;;;;;;;;;5030138;28;20362;-64
2023/12/14 10:42:11;;;;;;;17.95;9.60;;;;;;;;;;5047755;28;20037;-64
2023/12/14 10:44:37;;;;;;;24.25;11.27;;;;;;;;;;5050339;28;20049;-64
2023/12/14 10:47:04;;;;;;;17.95;9.88;;;;;;;;;;5015715;28;20050;-64
2023/12/14 10:49:31;;;;;;;19.20;9.68;;;;;;;;;;5049643;28;20041;-63
2023/12/14 10:51:58;;;;;;;17.45;10.13;;;;;;;;;;5049665;28;20059;-65
2023/12/14 10:54:25;;;;;;;18.42;9.60;;;;;;;;;;5050576;28;20152;-65
2023/12/14 10:56:58;;;;;;;15.85;9.20;;;;;;;;;;5032688;28;20048;-65
2023/12/14 10:59:25;;;;;;;16.02;9.10;;;;;;;;;;5020764;28;20483;-65
2023/12/14 11:01:54;;;;;;;22.55;9.63;;;;;;;;;;5031873;28;20080;-64
2023/12/14 11:04:24;;;;;;;17.25;10.13;;;;;;;;;;5032001;28;20120;-65
2023/12/14 11:06:54;;;;;;;17.02;9.43;;;;;;;;;;5031360;28;20496;-65
2023/12/14 11:09:23;;;;;;;20.45;10.75;;;;;;;;;;5048477;28;20392;-64
2023/12/14 11:11:57;;;;;;;17.10;9.55;;;;;;;;;;5032710;28;20120;-64
2023/12/14 11:14:23;;;;;;;19.10;9.32;;;;;;;;;;5015870;28;20140;-65
2023/12/14 11:16:51;;;;;;;17.23;10.18;;;;;;;;;;5034474;28;20049;-65
2023/12/14 11:19:24;;;;;;;15.55;8.52;;;;;;;;;;5036339;28;20053;-64
2023/12/14 11:22:06;;;;;;;26.43;11.17;;;;;;;;;;5030772;28;20060;-64
2023/12/14 11:24:32;;;;;;;14.55;9.02;;;;;;;;;;5031854;28;20079;-64
2023/12/14 11:26:59;;;;;;;16.50;8.70;;;;;;;;;;5036232;28;20408;-64
2023/12/14 11:29:26;;;;;;;20.33;10.00;;;;;;;;;;5036810;28;20077;-65
2023/12/14 11:31:52;;;;;;;16.10;9.40;;;;;;;;;;5054079;28;20037;-65
2023/12/14 11:34:18;;;;;;;17.63;8.85;;;;;;;;;;5053389;28;20056;-64
2023/12/14 11:36:45;;;;;;;13.93;8.65;;;;;;;;;;5054555;28;20049;-65
2023/12/14 11:39:12;;;;;;;22.05;9.30;;;;;;;;;;5019764;28;20063;-65
2023/12/14 11:41:38;;;;;;;17.85;10.50;;;;;;;;;;5036860;28;20149;-64
2023/12/14 11:44:05;;;;;;;18.40;9.35;;;;;;;;;;5052128;28;20142;-64
2023/12/14 11:46:31;;;;;;;20.08;10.13;;;;;;;;;;5054749;28;20041;-64
2023/12/14 11:48:58;;;;;;;19.50;9.18;;;;;;;;;;5035672;28;20544;-65
2023/12/14 11:51:30;;;;;;;19.95;10.05;;;;;;;;;;5036121;28;20041;-64
2023/12/14 11:53:56;;;;;;;20.77;9.93;;;;;;;;;;5039604;28;20064;-64
2023/12/14 11:56:25;;;;;;;14.60;9.18;;;;;;;;;;5054592;28;20384;-64
2023/12/14 11:58:53;;;;;;;20.63;10.27;;;;;;;;;;5053416;28;20378;-65
2023/12/14 12:01:24;;;;;;;17.52;10.07;;;;;;;;;;5053346;28;20048;-65
2023/12/14 12:03:50;;;;;;;15.80;9.20;;;;;;;;;;5018481;28;20045;-65
2023/12/14 12:06:30;;;;;;;18.25;9.40;;;;;;;;;;5035493;28;20044;-65
2023/12/14 12:08:56;;;;;;;18.75;9.38;;;;;;;;;;5035925;28;20070;-65
2023/12/14 12:11:25;;;;;;;15.27;9.38;;;;;;;;;;5036473;28;20128;-65
2023/12/14 12:13:52;;;;;;;16.27;9.80;;;;;;;;;;5051489;28;20048;-65
2023/12/14 12:16:18;;;;;;;18.08;9.45;;;;;;;;;;5034956;28;20340;-65
2023/12/14 12:18:44;;;;;;;17.17;9.43;;;;;;;;;;5034572;28;20084;-65
2023/12/14 12:21:12;;;;;;;19.38;9.93;;;;;;;;;;5034562;28;20045;-65
2023/12/14 12:23:38;;;;;;;20.58;10.60;;;;;;;;;;5047292;28;20173;-64
2023/12/14 12:26:04;;;;;;;15.25;9.30;;;;;;;;;;5031094;28;20186;-65
2023/12/14 12:28:31;;;;;;;18.45;9.13;;;;;;;;;;5034060;28;20408;-65
2023/12/14 12:30:57;;;;;;;16.20;9.38;;;;;;;;;;5033547;28;20043;-66
2023/12/14 12:33:25;;;;;;;16.75;9.38;;;;;;;;;;5033495;28;20502;-65
2023/12/14 12:35:52;;;;;;;19.52;10.10;;;;;;;;;;5033356;28;20506;-66
2023/12/14 12:38:18;;;;;;;15.77;9.73;;;;;;;;;;5034616;28;20063;-66
2023/12/14 12:40:45;;;;;;;15.35;9.32;;;;;;;;;;5052065;28;20047;-66
2023/12/14 12:43:11;;;;;;;17.20;9.82;;;;;;;;;;5052880;28;20049;-66
2023/12/14 12:45:37;;;;;;;18.02;10.63;;;;;;;;;;5010635;28;20037;-66
2023/12/14 12:48:06;;;;;;;17.73;10.15;;;;;;;;;;5051870;28;20130;-66
2023/12/14 12:50:32;;;;;;;18.67;9.88;;;;;;;;;;5033036;28;20523;-66
2023/12/14 12:52:59;;;;;;;15.60;10.48;;;;;;;;;;5034794;28;20052;-66
2023/12/14 12:55:25;;;;;;;18.50;10.20;;;;;;;;;;5033777;28;20052;-66
2023/12/14 12:57:51;;;;;;;19.60;10.63;;;;;;;;;;5034920;28;20056;-66
2023/12/14 13:00:17;;;;;;;18.15;10.35;;;;;;;;;;5032870;28;20075;-66
2023/12/14 13:02:45;;;;;;;17.77;9.23;;;;;;;;;;5032279;28;20500;-66
2023/12/14 13:05:11;;;;;;;19.67;9.95;;;;;;;;;;5052257;28;20045;-66
2023/12/14 13:07:37;;;;;;;20.50;10.05;;;;;;;;;;5051388;28;20044;-65
2023/12/14 13:10:06;;;;;;;18.73;9.48;;;;;;;;;;5052223;28;20045;-66
2023/12/14 13:12:32;;;;;;;19.35;10.50;;;;;;;;;;5051773;28;20041;-66
2023/12/14 13:14:58;;;;;;;23.42;9.98;;;;;;;;;;5034831;28;20215;-66
2023/12/14 13:17:24;;;;;;;19.63;10.25;;;;;;;;;;5051896;28;20049;-66
2023/12/14 13:19:51;;;;;;;18.80;9.55;;;;;;;;;;5034373;28;20053;-65
2023/12/14 13:22:18;;;;;;;17.27;8.75;;;;;;;;;;5051846;28;20170;-66
2023/12/14 13:24:44;;;;;;;21.25;10.07;;;;;;;;;;5049890;28;20052;-66
2023/12/14 13:27:10;;;;;;;23.75;9.23;;;;;;;;;;5051815;28;20087;-66
2023/12/14 13:29:36;;;;;;;14.82;8.70;;;;;;;;;;5033097;28;20148;-65
2023/12/14 13:32:02;;;;;;;17.67;9.95;;;;;;;;;;5034208;28;20371;-66
2023/12/14 13:34:29;;;;;;;19.20;10.10;;;;;;;;;;5051632;28;20459;-65
2023/12/14 13:36:55;;;;;;;14.60;9.10;;;;;;;;;;5050741;28;20125;-66
2023/12/14 13:39:21;;;;;;;13.63;8.32;;;;;;;;;;5016057;28;20064;-66
2023/12/14 13:41:48;;;;;;;13.10;8.57;;;;;;;;;;5032562;28;20049;-65
2023/12/14 13:44:14;;;;;;;15.90;9.05;;;;;;;;;;5033734;28;20052;-66
2023/12/14 13:46:40;;;;;;;17.35;9.05;;;;;;;;;;5033481;28;20041;-66
2023/12/14 13:49:06;;;;;;;15.68;8.48;;;;;;;;;;5051382;28;20049;-66
2023/12/14 13:51:33;;;;;;;17.77;8.93;;;;;;;;;;5050704;28;20498;-66
2023/12/14 13:54:00;;;;;;;20.90;9.10;;;;;;;;;;5033628;28;20053;-66
2023/12/14 13:56:27;;;;;;;20.85;9.20;;;;;;;;;;5051400;28;20045;-66
2023/12/14 13:58:53;;;;;;;16.50;9.13;;;;;;;;;;5032228;28;20051;-66
2023/12/14 14:01:20;;;;;;;13.93;8.50;;;;;;;;;;5051536;28;20498;-66
2023/12/14 14:03:46;;;;;;;14.23;8.32;;;;;;;;;;5034107;28;20128;-65
2023/12/14 14:06:13;;;;;;;16.75;8.23;;;;;;;;;;5031652;28;20044;-66
2023/12/14 14:08:42;;;;;;;12.80;7.80;;;;;;;;;;5033194;28;20115;-66
2023/12/14 14:11:12;;;;;;;14.10;8.52;;;;;;;;;;5030815;28;20488;-65
2023/12/14 14:13:38;;;;;;;16.10;8.77;;;;;;;;;;5033277;28;20140;-65
2023/12/14 14:16:05;;;;;;;19.85;8.40;;;;;;;;;;5032693;28;20040;-65
2023/12/14 14:18:31;;;;;;;14.57;9.35;;;;;;;;;;5028277;28;20064;-65
2023/12/14 14:20:58;;;;;;;18.55;9.88;;;;;;;;;;5027675;28;20061;-65
2023/12/14 14:23:24;;;;;;;17.23;9.35;;;;;;;;;;5029158;28;20051;-65